Time;durP1;ratioP1;P1;durP2;ratioP2;P2;SDS_P1;SDS_P2;PMS_P1;PMS_P2;Temp;Humidity;BMP_temperature;BMP_pressure;BME280_temperature;BME280_humidity;BME280_pressure;Samples;Min_cycle;Max_cycle;Signal;HPM_P1;HPM_P2
2024/01/13 00:02:20;;;;;;;33.37;22.43;;;5.00;32.70;;;;;;5074720;28;20184;-82
2024/01/13 00:04:46;;;;;;;33.67;22.33;;;5.00;30.50;;;;;;5073141;28;20176;-82
2024/01/13 00:07:12;;;;;;;34.97;23.47;;;5.00;29.60;;;;;;5071909;28;20614;-81
2024/01/13 00:09:37;;;;;;;34.20;21.30;;;4.90;28.70;;;;;;5073232;28;20181;-81
2024/01/13 00:12:04;;;;;;;35.20;22.43;;;4.90;32.20;;;;;;5072046;28;20211;-80
2024/01/13 00:14:30;;;;;;;32.93;22.60;;;4.80;34.20;;;;;;5081730;28;20163;-82
2024/01/13 00:16:55;;;;;;;31.90;23.20;;;5.00;37.80;;;;;;5092528;28;20238;-80
2024/01/13 00:19:21;;;;;;;30.50;22.20;;;5.00;33.90;;;;;;5091885;28;20207;-82
2024/01/13 00:21:47;;;;;;;31.57;22.50;;;5.10;31.10;;;;;;5091522;28;20171;-81
2024/01/13 00:24:12;;;;;;;32.20;21.90;;;5.10;26.00;;;;;;5093070;28;20528;-81
2024/01/13 00:26:38;;;;;;;33.63;22.47;;;5.10;26.80;;;;;;5091980;28;20179;-81
2024/01/13 00:29:04;;;;;;;32.00;22.90;;;5.00;27.20;;;;;;5093401;28;20167;-82
2024/01/13 00:31:29;;;;;;;30.37;21.70;;;5.00;28.80;;;;;;5093151;28;20166;-80
2024/01/13 00:33:55;;;;;;;31.83;22.33;;;5.00;30.30;;;;;;5091267;28;20171;-81
2024/01/13 00:36:21;;;;;;;35.63;23.37;;;4.90;32.80;;;;;;5090452;28;20510;-81
2024/01/13 00:38:47;;;;;;;33.73;23.40;;;5.00;34.10;;;;;;5090464;28;20242;-80
2024/01/13 00:41:12;;;;;;;29.07;22.00;;;5.00;33.10;;;;;;5092481;28;20172;-81
2024/01/13 00:43:38;;;;;;;31.80;23.13;;;5.00;33.40;;;;;;5090012;28;20769;-81
2024/01/13 00:46:04;;;;;;;35.47;22.07;;;5.00;33.90;;;;;;5091846;28;20171;-81
2024/01/13 00:48:30;;;;;;;29.63;22.30;;;4.90;33.50;;;;;;5091918;28;20199;-82
2024/01/13 00:50:56;;;;;;;31.20;22.67;;;4.90;37.40;;;;;;5097241;28;20187;-80
2024/01/13 00:53:21;;;;;;;31.17;21.83;;;4.90;39.00;;;;;;5103949;28;20224;-81
2024/01/13 00:55:47;;;;;;;29.17;21.77;;;4.90;39.00;;;;;;5094506;28;20168;-81
2024/01/13 00:58:13;;;;;;;34.13;21.67;;;4.90;38.60;;;;;;5091984;28;20667;-81
2024/01/13 01:00:39;;;;;;;28.03;21.07;;;4.80;40.00;;;;;;5091899;28;20175;-80
2024/01/13 01:03:04;;;;;;;27.13;20.03;;;4.90;41.10;;;;;;5092215;28;20166;-80
2024/01/13 01:05:30;;;;;;;33.53;20.17;;;4.90;40.10;;;;;;5090934;28;20260;-80
2024/01/13 01:07:56;;;;;;;30.77;21.33;;;4.90;41.10;;;;;;5092520;28;20182;-80
2024/01/13 01:10:21;;;;;;;27.87;21.10;;;5.00;38.80;;;;;;5091621;28;20176;-81
2024/01/13 01:12:47;;;;;;;28.77;20.97;;;5.10;32.70;;;;;;5091043;28;20251;-82
2024/01/13 01:15:12;;;;;;;32.13;22.33;;;5.30;30.00;;;;;;5090872;28;20292;-80
2024/01/13 01:17:38;;;;;;;30.77;21.77;;;5.30;18.00;;;;;;5091023;28;20195;-80
2024/01/13 01:20:05;;;;;;;30.40;21.57;;;5.20;13.40;;;;;;5092308;28;20695;-80
2024/01/13 01:22:30;;;;;;;28.77;20.63;;;5.00;20.10;;;;;;5092289;28;20242;-80
2024/01/13 01:24:56;;;;;;;30.67;21.00;;;5.10;25.40;;;;;;5088522;28;20334;-81
2024/01/13 01:27:22;;;;;;;31.57;20.47;;;5.00;24.50;;;;;;5090850;28;20217;-81
2024/01/13 01:29:47;;;;;;;28.63;19.47;;;5.00;29.30;;;;;;5093568;28;20221;-82
2024/01/13 01:32:13;;;;;;;27.60;19.57;;;5.00;31.10;;;;;;5096506;28;20576;-80
2024/01/13 01:34:39;;;;;;;25.83;19.93;;;5.00;30.20;;;;;;5096894;28;20164;-82
2024/01/13 01:37:04;;;;;;;27.47;19.93;;;4.90;32.30;;;;;;5095694;28;20535;-80
2024/01/13 01:39:30;;;;;;;28.60;19.70;;;5.00;35.30;;;;;;5096046;28;20211;-80
2024/01/13 01:41:55;;;;;;;26.03;18.83;;;5.10;31.70;;;;;;5096459;28;20693;-80
2024/01/13 01:44:21;;;;;;;28.23;19.70;;;5.10;28.30;;;;;;5094280;28;20651;-81
2024/01/13 01:46:48;;;;;;;27.97;19.37;;;5.20;25.90;;;;;;5096611;28;20572;-81
2024/01/13 01:49:16;;;;;;;27.33;19.77;;;5.30;25.60;;;;;;5094210;28;20167;-82
2024/01/13 01:51:42;;;;;;;29.30;20.17;;;5.50;22.00;;;;;;5095865;28;20160;-80
2024/01/13 01:54:09;;;;;;;27.13;19.73;;;5.40;21.10;;;;;;5094138;28;20266;-82
2024/01/13 01:56:36;;;;;;;25.77;20.13;;;5.30;20.60;;;;;;5093839;28;20187;-80
2024/01/13 01:59:03;;;;;;;29.07;19.60;;;5.20;19.00;;;;;;5094988;28;20199;-81
2024/01/13 02:01:30;;;;;;;26.40;19.90;;;5.10;20.30;;;;;;5093966;28;20486;-81
2024/01/13 02:03:57;;;;;;;28.47;20.03;;;5.10;25.20;;;;;;5094543;28;20172;-80
2024/01/13 02:06:23;;;;;;;28.57;19.47;;;5.10;27.00;;;;;;5096013;28;20217;-79
2024/01/13 02:08:50;;;;;;;27.83;19.97;;;5.10;26.30;;;;;;5093971;28;20171;-79
2024/01/13 02:11:16;;;;;;;26.37;19.00;;;5.10;26.20;;;;;;5092798;28;20262;-81
2024/01/13 02:13:46;;;;;;;29.30;19.87;;;5.10;27.80;;;;;;5094962;28;20191;-80
2024/01/13 02:16:13;;;;;;;24.20;18.57;;;5.00;28.70;;;;;;5093577;28;20171;-80
2024/01/13 02:18:39;;;;;;;23.37;17.30;;;4.90;32.70;;;;;;5094144;28;20203;-80
2024/01/13 02:21:05;;;;;;;27.63;19.30;;;4.90;36.30;;;;;;5093777;28;20167;-81
2024/01/13 02:23:31;;;;;;;26.27;18.90;;;4.80;38.70;;;;;;5094640;28;20163;-81
2024/01/13 02:25:57;;;;;;;24.20;18.77;;;4.90;39.50;;;;;;5093245;28;20176;-79
2024/01/13 02:28:23;;;;;;;26.00;18.70;;;5.00;40.50;;;;;;5100327;28;20639;-80
2024/01/13 02:30:48;;;;;;;24.20;17.63;;;5.10;37.70;;;;;;5098473;28;20700;-80
2024/01/13 02:33:14;;;;;;;26.23;18.80;;;4.90;38.20;;;;;;5095430;28;20641;-81
2024/01/13 02:35:39;;;;;;;24.93;17.80;;;4.90;39.90;;;;;;5095336;28;20627;-80
2024/01/13 02:38:05;;;;;;;25.33;18.47;;;4.90;40.80;;;;;;5093364;28;20248;-80
2024/01/13 02:40:31;;;;;;;28.80;18.07;;;5.00;41.30;;;;;;5094519;28;20260;-80
2024/01/13 02:42:56;;;;;;;28.20;18.53;;;5.00;37.80;;;;;;5095465;28;20183;-80
2024/01/13 02:45:22;;;;;;;26.43;19.07;;;5.00;38.00;;;;;;5094169;28;20176;-80
2024/01/13 02:48:13;;;;;;;26.97;19.90;;;5.10;35.00;;;;;;5093086;28;20632;-80
2024/01/13 02:50:39;;;;;;;28.93;18.70;;;5.10;26.00;;;;;;5092628;28;20194;-80
2024/01/13 02:53:05;;;;;;;32.27;19.73;;;5.20;27.40;;;;;;5091847;28;20258;-81
2024/01/13 02:55:30;;;;;;;25.20;18.73;;;5.00;30.60;;;;;;5094450;28;20172;-81
2024/01/13 02:57:56;;;;;;;27.07;18.60;;;5.00;33.30;;;;;;5093282;28;20183;-81
2024/01/13 03:00:22;;;;;;;25.50;18.00;;;4.90;35.00;;;;;;5093115;28;20298;-81
2024/01/13 03:02:47;;;;;;;25.73;17.47;;;4.90;37.50;;;;;;5094404;28;20175;-80
2024/01/13 03:05:13;;;;;;;24.80;18.63;;;5.00;38.00;;;;;;5093042;28;20179;-81
2024/01/13 03:07:38;;;;;;;22.20;17.53;;;5.10;34.40;;;;;;5093809;28;20175;-79
2024/01/13 03:10:05;;;;;;;24.10;17.77;;;5.10;31.90;;;;;;5094820;28;20164;-80
2024/01/13 03:12:30;;;;;;;21.27;16.80;;;5.20;29.50;;;;;;5093345;28;20258;-80
2024/01/13 03:14:57;;;;;;;22.70;16.63;;;5.10;25.50;;;;;;5093971;28;20263;-80
2024/01/13 03:17:22;;;;;;;25.27;17.27;;;5.20;26.90;;;;;;5093446;28;20812;-81
2024/01/13 03:19:48;;;;;;;27.13;17.20;;;5.30;21.90;;;;;;5094315;28;20286;-81
2024/01/13 03:22:13;;;;;;;22.73;16.87;;;5.30;19.30;;;;;;5094467;28;20659;-80
2024/01/13 03:24:39;;;;;;;25.47;17.40;;;5.30;10.10;;;;;;5093057;28;20184;-81
2024/01/13 03:27:05;;;;;;;22.37;16.67;;;5.30;8.30;;;;;;5094446;28;20182;-80
2024/01/13 03:29:30;;;;;;;25.37;17.40;;;5.20;10.00;;;;;;5093233;28;20679;-80
2024/01/13 03:31:56;;;;;;;21.37;17.03;;;5.10;10.90;;;;;;5099098;28;20178;-81
2024/01/13 03:34:21;;;;;;;21.17;16.30;;;5.00;17.50;;;;;;5113661;28;20242;-80
2024/01/13 03:36:47;;;;;;;21.20;16.20;;;5.10;23.20;;;;;;5111787;28;20174;-81
2024/01/13 03:39:13;;;;;;;22.40;16.77;;;5.20;19.50;;;;;;5112026;28;20256;-80
2024/01/13 03:41:39;;;;;;;25.60;17.50;;;5.10;17.40;;;;;;5111139;28;20163;-81
2024/01/13 03:44:04;;;;;;;25.83;16.57;;;5.00;21.60;;;;;;5112207;28;20174;-83
2024/01/13 03:46:30;;;;;;;21.40;16.03;;;5.20;23.70;;;;;;5112579;28;20167;-80
2024/01/13 03:48:56;;;;;;;23.07;16.87;;;5.30;20.20;;;;;;5111749;28;20167;-80
2024/01/13 03:51:21;;;;;;;23.73;18.03;;;5.40;15.60;;;;;;5112649;28;20242;-80
2024/01/13 03:53:47;;;;;;;23.87;16.77;;;5.50;7.50;;;;;;5110211;28;20175;-80
2024/01/13 03:56:12;;;;;;;22.83;17.50;;;5.40;6.90;;;;;;5112119;28;20182;-80
2024/01/13 03:58:38;;;;;;;25.77;17.50;;;5.40;3.80;;;;;;5111735;28;20190;-80
2024/01/13 04:01:04;;;;;;;21.30;15.80;;;5.30;3.90;;;;;;5111596;28;20181;-82
2024/01/13 04:03:30;;;;;;;21.47;15.53;;;5.20;7.30;;;;;;5110769;28;20166;-81
2024/01/13 04:05:58;;;;;;;22.80;15.33;;;5.20;9.80;;;;;;5113390;28;20199;-80
2024/01/13 04:08:24;;;;;;;23.00;16.57;;;5.20;9.00;;;;;;5118147;28;20178;-80
2024/01/13 04:10:50;;;;;;;21.83;15.77;;;5.10;11.60;;;;;;5112734;28;20206;-80
2024/01/13 04:13:16;;;;;;;22.10;17.70;;;5.10;11.70;;;;;;5112736;28;20261;-81
2024/01/13 04:15:42;;;;;;;20.60;15.50;;;5.40;9.70;;;;;;5112673;28;20166;-80
2024/01/13 04:18:08;;;;;;;19.33;15.80;;;5.20;13.00;;;;;;5111376;28;20243;-79
2024/01/13 04:20:33;;;;;;;21.90;16.37;;;5.30;7.60;;;;;;5110083;28;20175;-81
2024/01/13 04:22:59;;;;;;;23.30;16.40;;;5.20;7.80;;;;;;5112348;28;20175;-81
2024/01/13 04:25:25;;;;;;;20.53;15.60;;;5.20;10.60;;;;;;5112071;28;20561;-81
2024/01/13 04:27:52;;;;;;;18.70;14.63;;;5.00;13.20;;;;;;5113575;28;20167;-80
2024/01/13 04:30:18;;;;;;;24.03;15.40;;;4.90;17.50;;;;;;5111138;28;20171;-80
2024/01/13 04:32:44;;;;;;;19.70;14.60;;;4.80;22.00;;;;;;5112135;28;20184;-82
2024/01/13 04:35:11;;;;;;;18.77;14.53;;;4.80;25.30;;;;;;5128291;28;20171;-81
2024/01/13 04:37:37;;;;;;;22.67;15.10;;;4.90;26.70;;;;;;5129455;28;20196;-80
2024/01/13 04:40:03;;;;;;;20.80;15.37;;;4.60;27.30;;;;;;5123506;28;20221;-81
2024/01/13 04:42:31;;;;;;;20.57;14.57;;;4.60;30.40;;;;;;5111749;28;20171;-80
2024/01/13 04:44:57;;;;;;;21.13;15.03;;;4.50;34.50;;;;;;5112066;28;20280;-79
2024/01/13 04:47:24;;;;;;;20.80;14.40;;;4.40;36.90;;;;;;5111613;28;20166;-81
2024/01/13 04:49:49;;;;;;;18.60;15.00;;;4.40;38.80;;;;;;5110560;28;20178;-81
2024/01/13 04:52:15;;;;;;;17.77;13.90;;;4.50;38.60;;;;;;5112228;28;20533;-80
2024/01/13 04:54:41;;;;;;;19.30;14.27;;;4.50;37.80;;;;;;5111081;28;20168;-80
2024/01/13 04:57:06;;;;;;;18.13;14.60;;;4.50;37.00;;;;;;5100632;28;20194;-80
2024/01/13 04:59:32;;;;;;;17.50;13.97;;;4.50;38.00;;;;;;5092263;28;20256;-81
2024/01/13 05:01:57;;;;;;;18.70;13.70;;;4.60;37.10;;;;;;5093143;28;20164;-81
2024/01/13 05:04:23;;;;;;;16.43;13.53;;;4.50;32.70;;;;;;5091589;28;20230;-81
2024/01/13 05:06:49;;;;;;;19.20;14.87;;;4.60;32.20;;;;;;5091313;28;20179;-81
2024/01/13 05:09:14;;;;;;;19.80;13.87;;;4.60;31.50;;;;;;5091958;28;20167;-81
2024/01/13 05:11:40;;;;;;;17.87;13.27;;;4.70;26.80;;;;;;5090486;28;20839;-82
2024/01/13 05:14:05;;;;;;;17.57;12.53;;;4.60;27.00;;;;;;5092550;28;20167;-81
2024/01/13 05:16:31;;;;;;;18.77;12.47;;;4.80;25.90;;;;;;5091598;28;20190;-81
2024/01/13 05:18:57;;;;;;;16.83;12.77;;;4.70;20.70;;;;;;5090895;28;20342;-80
2024/01/13 05:21:22;;;;;;;16.33;12.63;;;4.60;21.90;;;;;;5092153;28;20234;-81
2024/01/13 05:23:49;;;;;;;16.23;12.37;;;4.60;25.00;;;;;;5090201;28;20212;-80
2024/01/13 05:26:14;;;;;;;16.70;11.83;;;4.50;25.40;;;;;;5090834;28;20179;-81
2024/01/13 05:28:40;;;;;;;15.13;10.97;;;4.50;28.10;;;;;;5091940;28;20175;-81
2024/01/13 05:31:06;;;;;;;14.67;12.00;;;4.60;30.40;;;;;;5091507;28;20646;-80
2024/01/13 05:33:31;;;;;;;15.03;11.77;;;4.60;27.50;;;;;;5091403;28;20168;-80
2024/01/13 05:35:57;;;;;;;14.60;11.03;;;4.60;26.60;;;;;;5090069;28;20171;-80
2024/01/13 05:38:22;;;;;;;17.47;11.50;;;4.70;25.90;;;;;;5091207;28;20644;-81
2024/01/13 05:40:48;;;;;;;14.13;11.67;;;4.70;22.60;;;;;;5092320;28;20183;-81
2024/01/13 05:43:14;;;;;;;16.43;11.50;;;4.80;21.10;;;;;;5091404;28;20176;-81
2024/01/13 05:45:40;;;;;;;14.50;10.97;;;4.80;19.50;;;;;;5092022;28;20164;-81
2024/01/13 05:48:06;;;;;;;15.37;11.13;;;4.80;16.70;;;;;;5094029;28;20168;-82
2024/01/13 05:50:33;;;;;;;15.67;11.00;;;4.70;18.20;;;;;;5091133;28;20217;-80
2024/01/13 05:52:59;;;;;;;14.13;12.03;;;4.90;16.60;;;;;;5090856;28;20176;-80
2024/01/13 05:55:24;;;;;;;12.37;10.57;;;4.80;10.80;;;;;;5089802;28;20183;-80
2024/01/13 05:57:50;;;;;;;13.90;10.90;;;4.70;13.60;;;;;;5092266;28;20191;-80
2024/01/13 06:00:16;;;;;;;16.93;12.13;;;4.80;13.70;;;;;;5090627;28;20222;-80
2024/01/13 06:02:43;;;;;;;12.83;10.77;;;4.80;10.60;;;;;;5092418;28;20172;-80
2024/01/13 06:05:09;;;;;;;14.00;10.70;;;4.70;11.40;;;;;;5090900;28;20191;-80
2024/01/13 06:07:35;;;;;;;12.27;10.83;;;4.70;13.50;;;;;;5091706;28;20179;-80
2024/01/13 06:10:01;;;;;;;13.10;10.57;;;4.70;14.50;;;;;;5091502;28;20618;-80
2024/01/13 06:12:28;;;;;;;13.73;10.83;;;4.70;14.80;;;;;;5090379;28;20172;-82
2024/01/13 06:14:55;;;;;;;15.07;11.23;;;4.70;15.70;;;;;;5089976;28;20178;-81
2024/01/13 06:17:21;;;;;;;17.23;10.83;;;4.80;16.50;;;;;;5095297;28;20233;-79
2024/01/13 06:19:47;;;;;;;15.90;12.50;;;4.90;12.40;;;;;;5094485;28;20235;-80
2024/01/13 06:22:13;;;;;;;16.30;12.07;;;4.90;5.50;;;;;;5095606;28;20560;-79
2024/01/13 06:24:39;;;;;;;14.33;12.53;;;5.00;2.40;;;;;;5095515;28;20627;-80
2024/01/13 06:27:04;;;;;;;18.37;12.87;;;4.90;4.50;;;;;;5094738;28;20168;-80
2024/01/13 06:29:30;;;;;;;17.73;13.40;;;4.80;11.20;;;;;;5094395;28;20179;-80
2024/01/13 06:31:56;;;;;;;16.37;13.37;;;4.70;18.70;;;;;;5094484;28;20167;-80
2024/01/13 06:34:21;;;;;;;16.10;13.83;;;4.70;22.30;;;;;;5094275;28;20266;-81
2024/01/13 06:36:47;;;;;;;16.80;14.60;;;4.70;20.10;;;;;;5093262;28;20206;-81
2024/01/13 06:39:13;;;;;;;17.90;13.67;;;4.80;21.60;;;;;;5094200;28;20211;-83
2024/01/13 06:41:38;;;;;;;16.87;13.03;;;4.80;19.10;;;;;;5094470;28;20172;-81
2024/01/13 06:44:04;;;;;;;17.50;13.63;;;4.70;19.40;;;;;;5093472;28;20183;-80
2024/01/13 06:46:30;;;;;;;17.30;13.53;;;4.70;22.90;;;;;;5094877;28;20156;-80
2024/01/13 06:48:55;;;;;;;16.30;13.43;;;4.70;26.30;;;;;;5094975;28;20639;-80
2024/01/13 06:51:21;;;;;;;17.17;13.17;;;4.80;26.70;;;;;;5091586;28;20167;-81
2024/01/13 06:53:47;;;;;;;19.53;15.10;;;4.70;22.70;;;;;;5093470;28;20179;-81
2024/01/13 06:56:12;;;;;;;21.03;15.30;;;4.70;29.40;;;;;;5093352;28;20637;-82
2024/01/13 06:58:38;;;;;;;17.00;13.63;;;4.70;29.50;;;;;;5093152;28;20199;-80
2024/01/13 07:01:04;;;;;;;19.50;15.03;;;4.80;28.30;;;;;;5094918;28;20511;-81
2024/01/13 07:03:30;;;;;;;17.67;14.83;;;4.70;28.70;;;;;;5094977;28;20194;-81
2024/01/13 07:05:56;;;;;;;18.63;14.80;;;4.70;29.70;;;;;;5092524;28;20175;-81
2024/01/13 07:08:22;;;;;;;25.10;15.77;;;4.60;35.00;;;;;;5092597;28;20175;-80
2024/01/13 07:10:53;;;;;;;19.83;15.43;;;4.60;35.20;;;;;;5095489;28;20171;-80
2024/01/13 07:13:19;;;;;;;19.53;15.47;;;4.40;40.20;;;;;;5093342;28;20176;-82
2024/01/13 07:15:45;;;;;;;21.90;15.53;;;4.50;45.50;;;;;;5094256;28;20221;-80
2024/01/13 07:18:10;;;;;;;22.63;16.10;;;4.40;45.20;;;;;;5093742;28;20304;-80
2024/01/13 07:20:36;;;;;;;20.23;15.30;;;4.30;48.90;;;;;;5094724;28;20640;-79
2024/01/13 07:23:02;;;;;;;19.97;15.23;;;4.50;49.30;;;;;;5094054;28;20238;-80
2024/01/13 07:25:30;;;;;;;19.23;15.47;;;4.50;45.30;;;;;;5093823;28;20172;-80
2024/01/13 07:27:56;;;;;;;19.67;15.77;;;4.60;46.00;;;;;;5093374;28;20256;-81
2024/01/13 07:30:22;;;;;;;20.97;15.57;;;4.50;48.50;;;;;;5096449;28;20183;-80
2024/01/13 07:32:47;;;;;;;24.67;15.70;;;4.60;42.90;;;;;;5096323;28;20164;-81
2024/01/13 07:35:13;;;;;;;21.37;16.27;;;4.40;41.90;;;;;;5092175;28;20182;-79
2024/01/13 07:37:39;;;;;;;21.67;16.60;;;4.40;46.90;;;;;;5094071;28;20179;-79
2024/01/13 07:40:06;;;;;;;21.33;15.73;;;4.50;45.20;;;;;;5092275;28;20253;-81
2024/01/13 07:42:32;;;;;;;25.43;16.23;;;4.30;46.70;;;;;;5093648;28;20217;-79
2024/01/13 07:44:58;;;;;;;21.73;16.20;;;4.20;51.30;;;;;;5092795;28;20176;-80
2024/01/13 07:47:24;;;;;;;21.87;16.97;;;4.20;55.60;;;;;;5093368;28;20186;-80
2024/01/13 07:49:49;;;;;;;24.10;16.90;;;4.20;51.10;;;;;;5092832;28;20187;-81
2024/01/13 07:52:15;;;;;;;22.63;17.17;;;4.10;52.00;;;;;;5091837;28;20172;-81
2024/01/13 07:54:41;;;;;;;23.37;17.13;;;4.10;55.40;;;;;;5091938;28;20182;-81
2024/01/13 07:57:07;;;;;;;25.90;16.53;;;4.10;55.70;;;;;;5093153;28;20184;-80
2024/01/13 07:59:32;;;;;;;22.97;16.70;;;4.10;54.30;;;;;;5090443;28;20616;-81
2024/01/13 08:01:58;;;;;;;23.00;16.47;;;4.00;58.30;;;;;;5091507;28;20167;-81
2024/01/13 08:04:23;;;;;;;23.03;16.97;;;3.90;62.00;;;;;;5093605;28;20179;-81
2024/01/13 08:06:49;;;;;;;22.53;16.10;;;4.00;61.10;;;;;;5091921;28;20184;-81
2024/01/13 08:09:17;;;;;;;24.17;18.00;;;4.00;58.40;;;;;;5093557;28;20267;-81
2024/01/13 08:11:43;;;;;;;24.17;18.40;;;3.90;61.00;;;;;;5094061;28;20175;-80
2024/01/13 08:14:08;;;;;;;26.63;18.17;;;3.90;59.40;;;;;;5092045;28;20179;-82
2024/01/13 08:16:34;;;;;;;27.67;18.50;;;3.90;58.60;;;;;;5090110;28;20539;-80
2024/01/13 08:19:04;;;;;;;22.97;17.63;;;4.00;56.80;;;;;;5093279;28;20199;-82
2024/01/13 08:21:29;;;;;;;27.37;17.87;;;4.00;58.10;;;;;;5091818;28;20338;-83
2024/01/13 08:23:55;;;;;;;27.90;17.80;;;4.00;56.00;;;;;;5091317;28;20206;-80
2024/01/13 08:26:21;;;;;;;25.40;17.87;;;4.00;54.30;;;;;;5090488;28;20172;-80
2024/01/13 08:28:46;;;;;;;27.13;18.87;;;3.90;53.20;;;;;;5091680;28;20168;-81
2024/01/13 08:31:13;;;;;;;28.73;18.83;;;3.90;55.30;;;;;;5091838;28;20168;-81
2024/01/13 08:33:39;;;;;;;27.57;18.37;;;3.90;56.00;;;;;;5090852;28;20171;-81
2024/01/13 08:36:05;;;;;;;27.63;19.30;;;4.00;51.70;;;;;;5091291;28;20655;-79
2024/01/13 08:38:31;;;;;;;26.53;18.30;;;3.90;50.20;;;;;;5089927;28;20203;-81
2024/01/13 08:40:56;;;;;;;27.53;18.33;;;3.90;52.70;;;;;;5092618;28;20172;-80
2024/01/13 08:43:22;;;;;;;25.70;18.23;;;3.90;53.70;;;;;;5090640;28;20274;-81
2024/01/13 08:45:48;;;;;;;28.57;18.73;;;3.80;54.40;;;;;;5091787;28;20205;-79
2024/01/13 08:48:13;;;;;;;26.30;18.33;;;3.90;57.60;;;;;;5091300;28;20172;-80
2024/01/13 08:50:40;;;;;;;30.23;19.70;;;4.00;54.70;;;;;;5091045;28;20175;-80
2024/01/13 08:53:06;;;;;;;27.53;18.97;;;4.10;49.60;;;;;;5091558;28;20171;-82
2024/01/13 08:55:32;;;;;;;27.50;19.13;;;4.10;43.10;;;;;;5091938;28;20262;-80
2024/01/13 08:57:57;;;;;;;26.57;18.63;;;4.00;37.40;;;;;;5090873;28;20430;-81
2024/01/13 09:00:23;;;;;;;30.43;19.80;;;4.00;44.70;;;;;;5092579;28;20203;-81
2024/01/13 09:02:49;;;;;;;26.30;17.97;;;3.90;43.50;;;;;;5090473;28;20171;-80
2024/01/13 09:05:14;;;;;;;26.20;19.13;;;3.90;47.40;;;;;;5090863;28;20176;-81
2024/01/13 09:07:40;;;;;;;30.60;18.90;;;4.00;46.80;;;;;;5091682;28;20611;-81
2024/01/13 09:10:06;;;;;;;26.80;19.20;;;3.90;42.00;;;;;;5088183;28;20190;-81
2024/01/13 09:12:32;;;;;;;22.70;18.43;;;4.00;45.40;;;;;;5073480;28;20173;-82
2024/01/13 09:14:58;;;;;;;27.70;17.80;;;4.10;43.00;;;;;;5072847;28;20168;-81
2024/01/13 09:17:23;;;;;;;23.07;18.20;;;4.20;37.60;;;;;;5078847;28;20240;-80
2024/01/13 09:19:49;;;;;;;24.77;18.13;;;4.10;32.60;;;;;;5095682;28;20571;-81
2024/01/13 09:22:15;;;;;;;23.87;18.93;;;4.10;35.60;;;;;;5090175;28;20628;-81
2024/01/13 09:24:44;;;;;;;24.17;17.83;;;4.00;36.00;;;;;;5092336;28;20229;-80
2024/01/13 09:27:09;;;;;;;23.17;17.53;;;4.10;30.10;;;;;;5091201;28;20248;-82
2024/01/13 09:29:35;;;;;;;27.13;18.50;;;4.10;30.20;;;;;;5090899;28;20944;-81
2024/01/13 09:32:04;;;;;;;23.43;17.87;;;4.20;31.80;;;;;;5083648;28;20183;-81
2024/01/13 09:34:30;;;;;;;29.17;18.70;;;4.20;25.60;;;;;;5073643;28;20762;-82
2024/01/13 09:36:55;;;;;;;29.37;19.47;;;4.20;21.90;;;;;;5082815;28;20266;-82
2024/01/13 09:39:21;;;;;;;27.10;18.57;;;4.20;18.00;;;;;;5072518;28;20664;-84
2024/01/13 09:41:48;;;;;;;31.47;19.90;;;4.40;15.40;;;;;;5073031;28;20179;-83
2024/01/13 09:44:22;;;;;;;28.33;19.17;;;4.30;15.30;;;;;;5070437;28;20176;-85
2024/01/13 09:46:52;;;;;;;27.47;18.47;;;4.20;14.20;;;;;;5072902;28;20616;-83
2024/01/13 09:49:19;;;;;;;27.23;20.30;;;4.20;15.70;;;;;;5079702;28;20272;-84
2024/01/13 09:51:45;;;;;;;26.77;19.83;;;4.20;18.90;;;;;;5082847;28;20172;-84
2024/01/13 09:54:28;;;;;;;26.03;19.27;;;4.20;13.80;;;;;;5073586;28;20183;-82
2024/01/13 09:56:56;;;;;;;25.13;18.63;;;4.10;17.10;;;;;;5089645;28;20195;-81
2024/01/13 09:59:22;;;;;;;25.07;18.57;;;4.10;18.70;;;;;;5093963;28;20369;-83
2024/01/13 10:01:49;;;;;;;24.57;18.93;;;4.30;17.00;;;;;;5094211;28;20172;-85
2024/01/13 10:04:15;;;;;;;26.27;19.37;;;4.10;18.20;;;;;;5094112;28;20176;-85
2024/01/13 10:06:41;;;;;;;25.83;19.50;;;4.10;20.50;;;;;;5091383;28;20197;-83
2024/01/13 10:09:07;;;;;;;24.30;19.23;;;4.20;16.70;;;;;;5093756;28;20233;-85
2024/01/13 10:11:33;;;;;;;24.90;18.63;;;4.10;14.80;;;;;;5094051;28;20175;-86
2024/01/13 10:14:04;;;;;;;24.77;19.07;;;4.10;15.10;;;;;;5094511;28;20648;-84
2024/01/13 10:16:31;;;;;;;27.30;18.97;;;4.10;15.80;;;;;;5094870;28;20539;-84
2024/01/13 10:19:08;;;;;;;27.73;20.63;;;4.20;16.50;;;;;;5093122;28;20203;-84
2024/01/13 10:21:36;;;;;;;26.93;19.83;;;4.20;11.20;;;;;;5092972;28;20623;-85
2024/01/13 10:24:01;;;;;;;27.77;20.77;;;4.20;10.60;;;;;;5093004;28;20182;-86
2024/01/13 10:26:29;;;;;;;26.70;20.47;;;4.40;6.60;;;;;;5094017;28;20164;-85
2024/01/13 10:28:56;;;;;;;27.33;21.57;;;4.30;5.00;;;;;;5094505;28;20258;-85
2024/01/13 10:31:23;;;;;;;30.07;21.07;;;4.30;9.20;;;;;;5094507;28;20628;-87
2024/01/13 10:33:50;;;;;;;24.73;20.50;;;4.30;9.00;;;;;;5094062;28;20635;-84
2024/01/13 10:36:19;;;;;;;24.97;19.23;;;4.30;13.90;;;;;;5092620;28;20168;-85
2024/01/13 10:38:45;;;;;;;21.83;18.43;;;4.30;7.90;;;;;;5095709;28;20267;-83
2024/01/13 10:41:11;;;;;;;23.67;18.77;;;4.30;11.30;;;;;;5088414;28;20183;-83
2024/01/13 10:43:42;;;;;;;25.50;19.10;;;4.10;13.80;;;;;;5084733;28;20171;-82
2024/01/13 10:46:12;;;;;;;25.07;19.33;;;4.10;14.20;;;;;;5073400;28;20654;-85
2024/01/13 10:48:47;;;;;;;25.17;20.07;;;4.10;18.20;;;;;;5073228;28;20172;-86
2024/01/13 10:51:18;;;;;;;25.43;17.80;;;4.10;20.00;;;;;;5072902;28;20170;-86
2024/01/13 10:53:47;;;;;;;25.93;19.53;;;4.10;20.10;;;;;;5073572;28;20176;-83
2024/01/13 10:56:15;;;;;;;26.83;19.37;;;4.10;20.10;;;;;;5072954;28;20180;-84
2024/01/13 10:58:43;;;;;;;27.47;18.70;;;4.00;18.90;;;;;;5080660;28;20219;-83
2024/01/13 11:01:09;;;;;;;26.87;19.47;;;4.00;20.10;;;;;;5088847;28;20184;-83
2024/01/13 11:03:40;;;;;;;25.50;18.87;;;3.90;24.10;;;;;;5074091;28;20581;-83
2024/01/13 11:06:06;;;;;;;24.77;19.03;;;3.90;24.30;;;;;;5079212;28;20175;-84
2024/01/13 11:08:32;;;;;;;29.57;20.73;;;3.90;26.50;;;;;;5088407;28;20646;-83
2024/01/13 11:11:00;;;;;;;25.47;18.83;;;3.90;24.80;;;;;;5073691;28;20184;-83
2024/01/13 11:13:30;;;;;;;25.93;18.53;;;4.10;23.70;;;;;;5077977;28;20179;-84
2024/01/13 11:16:04;;;;;;;26.30;19.33;;;4.10;22.80;;;;;;5078877;28;20286;-83
2024/01/13 11:18:36;;;;;;;26.07;19.23;;;4.20;24.40;;;;;;5072733;28;20218;-85
2024/01/13 11:21:07;;;;;;;27.03;19.57;;;4.10;24.60;;;;;;5079356;28;20207;-84
2024/01/13 11:23:39;;;;;;;25.07;18.53;;;4.10;17.30;;;;;;5093542;28;20180;-80
2024/01/13 11:26:05;;;;;;;25.83;19.70;;;4.00;18.80;;;;;;5092979;28;20648;-81
2024/01/13 11:28:46;;;;;;;26.10;19.00;;;4.00;21.40;;;;;;5093544;28;20171;-83
2024/01/13 11:31:31;;;;;;;26.80;18.77;;;4.00;21.50;;;;;;5086464;28;20179;-83
2024/01/13 11:33:58;;;;;;;28.13;19.83;;;4.00;22.10;;;;;;5072528;28;20191;-83
2024/01/13 11:36:27;;;;;;;28.70;21.60;;;4.10;23.00;;;;;;5072980;28;20175;-83
2024/01/13 11:38:55;;;;;;;32.20;20.40;;;4.10;23.00;;;;;;5072950;28;20232;-83
2024/01/13 11:41:21;;;;;;;29.33;20.37;;;4.10;22.40;;;;;;5072819;28;20225;-83
2024/01/13 11:43:48;;;;;;;25.37;19.47;;;4.20;20.30;;;;;;5078061;28;20263;-84
2024/01/13 11:46:17;;;;;;;27.10;18.77;;;4.20;20.80;;;;;;5093895;28;20183;-83
2024/01/13 11:48:43;;;;;;;30.53;20.10;;;4.20;19.40;;;;;;5092507;28;20528;-84
2024/01/13 11:51:12;;;;;;;28.90;20.37;;;4.30;18.70;;;;;;5096665;28;20232;-84
2024/01/13 11:53:39;;;;;;;24.13;18.77;;;4.20;16.50;;;;;;5097417;28;20697;-84
2024/01/13 11:56:07;;;;;;;28.30;20.27;;;4.30;16.60;;;;;;5088168;28;20604;-84
2024/01/13 11:58:38;;;;;;;30.30;22.00;;;4.40;8.40;;;;;;5079951;28;20206;-82
2024/01/13 12:01:09;;;;;;;28.43;20.03;;;4.40;5.90;;;;;;5081670;28;20270;-84
2024/01/13 12:03:37;;;;;;;28.83;20.60;;;4.30;9.20;;;;;;5071521;28;20632;-84
2024/01/13 12:06:03;;;;;;;33.07;25.67;;;4.30;11.90;;;;;;5083646;28;20176;-84
2024/01/13 12:08:29;;;;;;;31.70;21.33;;;4.30;12.50;;;;;;5084698;28;20263;-84
2024/01/13 12:10:55;;;;;;;30.97;23.00;;;4.30;10.90;;;;;;5073353;28;20615;-84
2024/01/13 12:13:22;;;;;;;29.53;20.93;;;4.60;4.60;;;;;;5078375;28;20188;-82
2024/01/13 12:15:48;;;;;;;32.20;21.20;;;4.30;1.00;;;;;;5081493;28;20236;-82
2024/01/13 12:18:21;;;;;;;29.77;20.87;;;4.40;1.00;;;;;;5079308;28;20191;-85
2024/01/13 12:20:48;;;;;;;31.27;21.40;;;4.30;1.00;;;;;;5073304;28;20184;-83
2024/01/13 12:23:15;;;;;;;32.20;21.07;;;4.20;2.20;;;;;;5089639;28;20175;-82
2024/01/13 12:25:41;;;;;;;30.90;20.87;;;4.30;3.40;;;;;;5077460;28;20672;-83
2024/01/13 12:28:07;;;;;;;28.17;20.20;;;4.20;1.00;;;;;;5084310;28;20190;-84
2024/01/13 12:30:35;;;;;;;29.30;21.70;;;4.30;1.00;;;;;;5087503;28;20172;-83
2024/01/13 12:33:04;;;;;;;29.67;20.73;;;4.50;1.00;;;;;;5076734;28;20179;-82
2024/01/13 12:35:30;;;;;;;35.57;22.20;;;4.40;1.00;;;;;;5072137;28;20187;-84